sensor_id;sensor_type;location;lat;lon;timestamp;P1;durP1;ratioP1;P2;durP2;ratioP2
57889;SDS011;43707;50.184;18.966;2022-11-15T00:00:31;28.80;;;15.90;;
57889;SDS011;43707;50.184;18.966;2022-11-15T00:03:00;37.10;;;17.10;;
57889;SDS011;43707;50.184;18.966;2022-11-15T00:05:25;31.30;;;15.20;;
57889;SDS011;43707;50.184;18.966;2022-11-15T00:07:51;32.10;;;16.00;;
57889;SDS011;43707;50.184;18.966;2022-11-15T00:10:16;33.50;;;17.10;;
57889;SDS011;43707;50.184;18.966;2022-11-15T00:12:43;25.40;;;14.70;;
57889;SDS011;43707;50.184;18.966;2022-11-15T00:15:13;29.60;;;15.50;;
57889;SDS011;43707;50.184;18.966;2022-11-15T00:17:38;29.20;;;15.30;;
57889;SDS011;43707;50.184;18.966;2022-11-15T00:20:04;33.10;;;15.30;;
57889;SDS011;43707;50.184;18.966;2022-11-15T00:22:38;27.30;;;14.70;;
57889;SDS011;43707;50.184;18.966;2022-11-15T00:27:35;32.90;;;17.50;;
57889;SDS011;43707;50.184;18.966;2022-11-15T00:30:03;33.40;;;16.70;;
57889;SDS011;43707;50.184;18.966;2022-11-15T00:32:31;29.70;;;16.10;;
57889;SDS011;43707;50.184;18.966;2022-11-15T00:34:57;24.20;;;14.30;;
57889;SDS011;43707;50.184;18.966;2022-11-15T00:37:23;31.30;;;17.00;;
57889;SDS011;43707;50.184;18.966;2022-11-15T00:39:56;30.60;;;16.20;;
57889;SDS011;43707;50.184;18.966;2022-11-15T00:42:21;32.50;;;17.60;;
57889;SDS011;43707;50.184;18.966;2022-11-15T00:44:50;32.00;;;16.20;;
57889;SDS011;43707;50.184;18.966;2022-11-15T00:47:15;33.00;;;16.40;;
57889;SDS011;43707;50.184;18.966;2022-11-15T00:49:41;34.60;;;16.80;;
57889;SDS011;43707;50.184;18.966;2022-11-15T00:52:06;31.70;;;17.10;;
57889;SDS011;43707;50.184;18.966;2022-11-15T00:54:32;32.30;;;15.60;;
57889;SDS011;43707;50.184;18.966;2022-11-15T00:56:57;28.00;;;16.70;;
57889;SDS011;43707;50.184;18.966;2022-11-15T00:59:23;25.80;;;15.20;;
57889;SDS011;43707;50.184;18.966;2022-11-15T01:01:48;29.10;;;16.10;;
57889;SDS011;43707;50.184;18.966;2022-11-15T01:04:14;31.80;;;16.90;;
57889;SDS011;43707;50.184;18.966;2022-11-15T01:06:39;27.70;;;15.70;;
57889;SDS011;43707;50.184;18.966;2022-11-15T01:09:05;26.90;;;15.40;;
57889;SDS011;43707;50.184;18.966;2022-11-15T01:11:30;31.00;;;16.00;;
57889;SDS011;43707;50.184;18.966;2022-11-15T01:13:55;25.90;;;14.60;;
57889;SDS011;43707;50.184;18.966;2022-11-15T01:16:21;25.70;;;15.20;;
57889;SDS011;43707;50.184;18.966;2022-11-15T01:18:46;27.50;;;14.80;;
57889;SDS011;43707;50.184;18.966;2022-11-15T01:21:16;32.70;;;16.20;;
57889;SDS011;43707;50.184;18.966;2022-11-15T01:23:43;27.90;;;14.90;;
57889;SDS011;43707;50.184;18.966;2022-11-15T01:26:10;32.00;;;17.30;;
57889;SDS011;43707;50.184;18.966;2022-11-15T01:28:38;26.50;;;15.10;;
57889;SDS011;43707;50.184;18.966;2022-11-15T01:31:06;30.30;;;16.70;;
57889;SDS011;43707;50.184;18.966;2022-11-15T01:33:36;30.80;;;16.50;;
57889;SDS011;43707;50.184;18.966;2022-11-15T01:36:05;30.60;;;15.90;;
57889;SDS011;43707;50.184;18.966;2022-11-15T01:38:32;24.80;;;14.30;;
57889;SDS011;43707;50.184;18.966;2022-11-15T01:40:57;28.00;;;14.70;;
57889;SDS011;43707;50.184;18.966;2022-11-15T01:43:24;21.60;;;12.80;;
57889;SDS011;43707;50.184;18.966;2022-11-15T01:45:53;22.50;;;12.80;;
57889;SDS011;43707;50.184;18.966;2022-11-15T01:48:41;18.10;;;12.40;;
57889;SDS011;43707;50.184;18.966;2022-11-15T01:51:13;21.90;;;12.20;;
57889;SDS011;43707;50.184;18.966;2022-11-15T01:54:03;25.40;;;14.10;;
57889;SDS011;43707;50.184;18.966;2022-11-15T01:56:38;24.80;;;13.70;;
57889;SDS011;43707;50.184;18.966;2022-11-15T01:59:15;25.20;;;14.30;;
57889;SDS011;43707;50.184;18.966;2022-11-15T02:01:40;28.60;;;15.30;;
57889;SDS011;43707;50.184;18.966;2022-11-15T02:04:09;25.50;;;14.20;;
57889;SDS011;43707;50.184;18.966;2022-11-15T02:06:38;29.80;;;14.50;;
57889;SDS011;43707;50.184;18.966;2022-11-15T02:09:05;29.60;;;16.20;;
57889;SDS011;43707;50.184;18.966;2022-11-15T02:11:31;28.70;;;15.60;;
57889;SDS011;43707;50.184;18.966;2022-11-15T02:13:56;33.30;;;17.40;;
57889;SDS011;43707;50.184;18.966;2022-11-15T02:26:57;27.20;;;14.70;;
57889;SDS011;43707;50.184;18.966;2022-11-15T02:32:19;24.80;;;14.10;;
57889;SDS011;43707;50.184;18.966;2022-11-15T02:37:56;30.60;;;15.80;;
57889;SDS011;43707;50.184;18.966;2022-11-15T02:49:24;31.40;;;15.50;;
57889;SDS011;43707;50.184;18.966;2022-11-15T02:51:54;31.30;;;15.10;;
57889;SDS011;43707;50.184;18.966;2022-11-15T02:54:22;27.30;;;13.90;;
57889;SDS011;43707;50.184;18.966;2022-11-15T02:56:54;23.50;;;13.80;;
57889;SDS011;43707;50.184;18.966;2022-11-15T03:19:53;23.60;;;13.70;;
57889;SDS011;43707;50.184;18.966;2022-11-15T03:22:54;24.90;;;12.80;;
57889;SDS011;43707;50.184;18.966;2022-11-15T03:25:25;28.60;;;15.70;;
57889;SDS011;43707;50.184;18.966;2022-11-15T03:27:55;25.40;;;15.00;;
57889;SDS011;43707;50.184;18.966;2022-11-15T03:30:28;26.90;;;14.50;;
57889;SDS011;43707;50.184;18.966;2022-11-15T03:33:00;25.20;;;13.70;;
57889;SDS011;43707;50.184;18.966;2022-11-15T03:38:33;30.20;;;16.80;;
57889;SDS011;43707;50.184;18.966;2022-11-15T03:41:05;27.50;;;15.60;;
57889;SDS011;43707;50.184;18.966;2022-11-15T03:47:03;25.90;;;13.40;;
57889;SDS011;43707;50.184;18.966;2022-11-15T03:49:35;28.00;;;14.70;;
57889;SDS011;43707;50.184;18.966;2022-11-15T03:52:05;24.40;;;14.40;;
57889;SDS011;43707;50.184;18.966;2022-11-15T03:54:33;28.70;;;15.50;;
57889;SDS011;43707;50.184;18.966;2022-11-15T03:56:59;26.40;;;14.50;;
57889;SDS011;43707;50.184;18.966;2022-11-15T03:59:30;23.20;;;14.10;;
57889;SDS011;43707;50.184;18.966;2022-11-15T04:01:57;24.00;;;14.00;;
57889;SDS011;43707;50.184;18.966;2022-11-15T04:04:25;26.20;;;16.00;;
57889;SDS011;43707;50.184;18.966;2022-11-15T04:07:03;21.40;;;14.10;;
57889;SDS011;43707;50.184;18.966;2022-11-15T04:09:34;28.20;;;15.60;;
57889;SDS011;43707;50.184;18.966;2022-11-15T04:12:26;22.50;;;13.20;;
57889;SDS011;43707;50.184;18.966;2022-11-15T04:15:02;33.30;;;15.90;;
57889;SDS011;43707;50.184;18.966;2022-11-15T04:20:18;23.50;;;14.10;;
57889;SDS011;43707;50.184;18.966;2022-11-15T04:23:07;23.90;;;13.60;;
57889;SDS011;43707;50.184;18.966;2022-11-15T04:26:06;23.80;;;13.20;;
57889;SDS011;43707;50.184;18.966;2022-11-15T04:28:47;26.60;;;14.00;;
57889;SDS011;43707;50.184;18.966;2022-11-15T04:31:31;27.60;;;15.10;;
57889;SDS011;43707;50.184;18.966;2022-11-15T04:34:00;28.50;;;14.80;;
57889;SDS011;43707;50.184;18.966;2022-11-15T04:36:26;27.20;;;13.70;;
57889;SDS011;43707;50.184;18.966;2022-11-15T04:39:11;23.90;;;14.30;;
57889;SDS011;43707;50.184;18.966;2022-11-15T04:41:38;30.10;;;16.20;;
57889;SDS011;43707;50.184;18.966;2022-11-15T04:44:06;32.80;;;15.50;;
57889;SDS011;43707;50.184;18.966;2022-11-15T04:46:34;36.60;;;17.00;;
57889;SDS011;43707;50.184;18.966;2022-11-15T04:49:00;41.90;;;17.70;;
57889;SDS011;43707;50.184;18.966;2022-11-15T04:51:25;30.30;;;16.30;;
57889;SDS011;43707;50.184;18.966;2022-11-15T04:53:51;27.70;;;14.70;;
57889;SDS011;43707;50.184;18.966;2022-11-15T04:56:16;26.00;;;14.80;;
57889;SDS011;43707;50.184;18.966;2022-11-15T04:58:41;20.00;;;13.30;;
57889;SDS011;43707;50.184;18.966;2022-11-15T05:01:10;19.60;;;12.10;;
57889;SDS011;43707;50.184;18.966;2022-11-15T05:03:38;18.10;;;12.50;;
57889;SDS011;43707;50.184;18.966;2022-11-15T05:06:22;21.70;;;12.30;;
57889;SDS011;43707;50.184;18.966;2022-11-15T05:08:48;22.70;;;12.90;;
57889;SDS011;43707;50.184;18.966;2022-11-15T05:11:13;24.10;;;13.80;;
57889;SDS011;43707;50.184;18.966;2022-11-15T05:13:38;20.00;;;12.40;;
57889;SDS011;43707;50.184;18.966;2022-11-15T05:16:04;21.10;;;13.00;;
57889;SDS011;43707;50.184;18.966;2022-11-15T05:18:30;22.50;;;11.30;;
57889;SDS011;43707;50.184;18.966;2022-11-15T05:20:55;22.00;;;12.30;;
57889;SDS011;43707;50.184;18.966;2022-11-15T05:23:20;24.60;;;13.20;;
57889;SDS011;43707;50.184;18.966;2022-11-15T05:29:19;33.50;;;16.60;;
57889;SDS011;43707;50.184;18.966;2022-11-15T05:31:44;36.40;;;18.40;;
57889;SDS011;43707;50.184;18.966;2022-11-15T05:34:09;24.80;;;14.00;;
57889;SDS011;43707;50.184;18.966;2022-11-15T05:36:36;25.80;;;13.50;;
57889;SDS011;43707;50.184;18.966;2022-11-15T05:39:03;28.10;;;14.90;;
57889;SDS011;43707;50.184;18.966;2022-11-15T05:41:51;20.30;;;13.20;;
57889;SDS011;43707;50.184;18.966;2022-11-15T05:44:18;24.70;;;13.70;;
57889;SDS011;43707;50.184;18.966;2022-11-15T05:46:46;27.40;;;13.50;;
57889;SDS011;43707;50.184;18.966;2022-11-15T05:49:16;27.50;;;13.50;;
57889;SDS011;43707;50.184;18.966;2022-11-15T05:51:44;27.20;;;14.10;;
57889;SDS011;43707;50.184;18.966;2022-11-15T05:54:15;23.90;;;12.90;;
57889;SDS011;43707;50.184;18.966;2022-11-15T05:56:41;26.60;;;14.60;;
57889;SDS011;43707;50.184;18.966;2022-11-15T05:59:09;23.50;;;12.40;;
57889;SDS011;43707;50.184;18.966;2022-11-15T06:01:36;25.10;;;13.20;;
57889;SDS011;43707;50.184;18.966;2022-11-15T06:04:05;29.70;;;15.50;;
57889;SDS011;43707;50.184;18.966;2022-11-15T06:06:30;28.40;;;13.60;;
57889;SDS011;43707;50.184;18.966;2022-11-15T06:08:59;21.40;;;13.10;;
57889;SDS011;43707;50.184;18.966;2022-11-15T06:11:24;22.60;;;12.00;;
57889;SDS011;43707;50.184;18.966;2022-11-15T06:13:53;22.10;;;13.00;;
57889;SDS011;43707;50.184;18.966;2022-11-15T06:16:29;23.00;;;12.90;;
57889;SDS011;43707;50.184;18.966;2022-11-15T06:18:55;25.20;;;14.40;;
57889;SDS011;43707;50.184;18.966;2022-11-15T06:21:20;23.80;;;13.10;;
57889;SDS011;43707;50.184;18.966;2022-11-15T06:23:48;23.20;;;13.40;;
57889;SDS011;43707;50.184;18.966;2022-11-15T06:26:13;20.10;;;12.30;;
57889;SDS011;43707;50.184;18.966;2022-11-15T06:28:47;22.80;;;12.60;;
57889;SDS011;43707;50.184;18.966;2022-11-15T06:31:16;25.60;;;13.70;;
57889;SDS011;43707;50.184;18.966;2022-11-15T06:33:41;22.90;;;12.20;;
57889;SDS011;43707;50.184;18.966;2022-11-15T06:36:13;21.80;;;13.00;;
57889;SDS011;43707;50.184;18.966;2022-11-15T06:38:40;28.10;;;15.00;;
57889;SDS011;43707;50.184;18.966;2022-11-15T06:41:06;35.20;;;16.80;;
57889;SDS011;43707;50.184;18.966;2022-11-15T06:43:33;37.90;;;18.90;;
57889;SDS011;43707;50.184;18.966;2022-11-15T06:46:02;35.50;;;16.30;;
57889;SDS011;43707;50.184;18.966;2022-11-15T06:48:29;34.80;;;17.40;;
57889;SDS011;43707;50.184;18.966;2022-11-15T06:50:56;29.00;;;15.50;;
57889;SDS011;43707;50.184;18.966;2022-11-15T06:53:23;32.50;;;16.90;;
57889;SDS011;43707;50.184;18.966;2022-11-15T06:55:49;29.90;;;15.70;;
57889;SDS011;43707;50.184;18.966;2022-11-15T06:58:15;35.30;;;18.20;;
57889;SDS011;43707;50.184;18.966;2022-11-15T07:00:40;31.20;;;16.90;;
57889;SDS011;43707;50.184;18.966;2022-11-15T07:03:06;31.80;;;14.60;;
57889;SDS011;43707;50.184;18.966;2022-11-15T07:05:31;29.00;;;14.60;;
57889;SDS011;43707;50.184;18.966;2022-11-15T07:07:57;31.90;;;17.00;;
57889;SDS011;43707;50.184;18.966;2022-11-15T07:10:24;29.50;;;16.00;;
57889;SDS011;43707;50.184;18.966;2022-11-15T07:12:50;29.30;;;15.00;;
57889;SDS011;43707;50.184;18.966;2022-11-15T07:15:17;25.80;;;15.10;;
57889;SDS011;43707;50.184;18.966;2022-11-15T07:17:43;34.50;;;16.80;;
57889;SDS011;43707;50.184;18.966;2022-11-15T07:20:09;27.90;;;15.20;;
57889;SDS011;43707;50.184;18.966;2022-11-15T07:22:35;37.80;;;18.20;;
57889;SDS011;43707;50.184;18.966;2022-11-15T07:25:00;33.80;;;16.80;;
57889;SDS011;43707;50.184;18.966;2022-11-15T07:27:26;27.00;;;14.70;;
57889;SDS011;43707;50.184;18.966;2022-11-15T07:29:51;30.00;;;15.90;;
57889;SDS011;43707;50.184;18.966;2022-11-15T07:32:16;29.50;;;15.30;;
57889;SDS011;43707;50.184;18.966;2022-11-15T07:34:42;28.70;;;15.80;;
57889;SDS011;43707;50.184;18.966;2022-11-15T07:37:07;27.60;;;16.70;;
57889;SDS011;43707;50.184;18.966;2022-11-15T07:39:33;23.50;;;14.90;;
57889;SDS011;43707;50.184;18.966;2022-11-15T07:41:59;25.00;;;13.90;;
57889;SDS011;43707;50.184;18.966;2022-11-15T07:44:43;30.80;;;16.60;;
57889;SDS011;43707;50.184;18.966;2022-11-15T07:47:09;37.60;;;18.30;;
57889;SDS011;43707;50.184;18.966;2022-11-15T07:49:35;42.80;;;21.30;;
57889;SDS011;43707;50.184;18.966;2022-11-15T07:52:00;40.80;;;20.30;;
57889;SDS011;43707;50.184;18.966;2022-11-15T07:54:26;47.50;;;24.30;;
57889;SDS011;43707;50.184;18.966;2022-11-15T07:56:51;44.90;;;21.10;;
57889;SDS011;43707;50.184;18.966;2022-11-15T07:59:17;48.80;;;24.60;;
57889;SDS011;43707;50.184;18.966;2022-11-15T08:01:42;40.00;;;19.80;;
57889;SDS011;43707;50.184;18.966;2022-11-15T08:04:09;32.30;;;19.70;;
57889;SDS011;43707;50.184;18.966;2022-11-15T08:06:36;28.80;;;16.40;;
57889;SDS011;43707;50.184;18.966;2022-11-15T08:09:01;30.00;;;16.60;;
57889;SDS011;43707;50.184;18.966;2022-11-15T08:11:27;29.90;;;17.40;;
57889;SDS011;43707;50.184;18.966;2022-11-15T08:13:52;33.90;;;18.50;;
57889;SDS011;43707;50.184;18.966;2022-11-15T08:16:18;29.70;;;16.10;;
57889;SDS011;43707;50.184;18.966;2022-11-15T08:18:43;30.30;;;16.00;;
57889;SDS011;43707;50.184;18.966;2022-11-15T08:21:09;36.90;;;19.10;;
57889;SDS011;43707;50.184;18.966;2022-11-15T08:23:38;34.50;;;19.20;;
57889;SDS011;43707;50.184;18.966;2022-11-15T08:26:04;27.30;;;15.40;;
57889;SDS011;43707;50.184;18.966;2022-11-15T08:28:30;28.40;;;15.50;;
57889;SDS011;43707;50.184;18.966;2022-11-15T08:30:56;32.70;;;18.10;;
57889;SDS011;43707;50.184;18.966;2022-11-15T08:33:21;27.30;;;16.00;;
57889;SDS011;43707;50.184;18.966;2022-11-15T08:35:47;32.00;;;16.50;;
57889;SDS011;43707;50.184;18.966;2022-11-15T08:38:13;35.30;;;18.80;;
57889;SDS011;43707;50.184;18.966;2022-11-15T08:40:42;43.30;;;21.00;;
57889;SDS011;43707;50.184;18.966;2022-11-15T08:43:07;35.50;;;18.10;;
57889;SDS011;43707;50.184;18.966;2022-11-15T08:45:34;31.10;;;16.10;;
57889;SDS011;43707;50.184;18.966;2022-11-15T08:48:02;34.40;;;17.70;;
57889;SDS011;43707;50.184;18.966;2022-11-15T08:50:28;30.50;;;16.90;;
57889;SDS011;43707;50.184;18.966;2022-11-15T08:52:53;36.00;;;18.80;;
57889;SDS011;43707;50.184;18.966;2022-11-15T08:55:20;40.20;;;21.00;;
57889;SDS011;43707;50.184;18.966;2022-11-15T08:57:45;41.70;;;19.80;;
57889;SDS011;43707;50.184;18.966;2022-11-15T09:00:11;37.60;;;19.00;;
57889;SDS011;43707;50.184;18.966;2022-11-15T09:02:38;36.20;;;18.60;;
57889;SDS011;43707;50.184;18.966;2022-11-15T09:05:04;36.80;;;19.60;;
57889;SDS011;43707;50.184;18.966;2022-11-15T09:07:30;31.30;;;17.00;;
57889;SDS011;43707;50.184;18.966;2022-11-15T09:09:58;37.50;;;20.60;;
57889;SDS011;43707;50.184;18.966;2022-11-15T09:12:29;38.00;;;21.00;;
57889;SDS011;43707;50.184;18.966;2022-11-15T09:14:56;37.80;;;19.90;;
57889;SDS011;43707;50.184;18.966;2022-11-15T09:17:21;41.00;;;21.40;;
57889;SDS011;43707;50.184;18.966;2022-11-15T09:19:47;34.10;;;18.80;;
57889;SDS011;43707;50.184;18.966;2022-11-15T09:22:12;37.10;;;21.20;;
57889;SDS011;43707;50.184;18.966;2022-11-15T09:24:37;37.20;;;21.00;;
57889;SDS011;43707;50.184;18.966;2022-11-15T09:27:06;32.60;;;19.30;;
57889;SDS011;43707;50.184;18.966;2022-11-15T09:29:31;36.60;;;19.70;;
57889;SDS011;43707;50.184;18.966;2022-11-15T09:31:56;37.60;;;22.30;;
57889;SDS011;43707;50.184;18.966;2022-11-15T09:34:22;36.30;;;19.50;;
57889;SDS011;43707;50.184;18.966;2022-11-15T09:36:48;36.70;;;19.70;;
57889;SDS011;43707;50.184;18.966;2022-11-15T09:39:13;35.90;;;20.10;;
57889;SDS011;43707;50.184;18.966;2022-11-15T09:41:50;38.90;;;21.40;;
57889;SDS011;43707;50.184;18.966;2022-11-15T09:44:32;35.10;;;20.20;;
57889;SDS011;43707;50.184;18.966;2022-11-15T09:49:54;36.90;;;20.50;;
57889;SDS011;43707;50.184;18.966;2022-11-15T09:52:22;38.60;;;22.00;;
57889;SDS011;43707;50.184;18.966;2022-11-15T09:54:48;42.30;;;22.80;;
57889;SDS011;43707;50.184;18.966;2022-11-15T09:57:32;43.90;;;22.90;;
57889;SDS011;43707;50.184;18.966;2022-11-15T10:00:08;42.60;;;22.60;;
57889;SDS011;43707;50.184;18.966;2022-11-15T10:05:46;41.80;;;22.80;;
57889;SDS011;43707;50.184;18.966;2022-11-15T10:10:46;53.30;;;26.90;;
57889;SDS011;43707;50.184;18.966;2022-11-15T10:13:31;48.30;;;26.60;;
57889;SDS011;43707;50.184;18.966;2022-11-15T10:16:12;48.50;;;24.60;;
57889;SDS011;43707;50.184;18.966;2022-11-15T10:21:45;45.70;;;24.20;;
57889;SDS011;43707;50.184;18.966;2022-11-15T10:24:37;53.30;;;26.90;;
57889;SDS011;43707;50.184;18.966;2022-11-15T10:27:12;48.30;;;25.70;;
57889;SDS011;43707;50.184;18.966;2022-11-15T10:29:48;55.60;;;26.70;;
57889;SDS011;43707;50.184;18.966;2022-11-15T10:32:16;46.60;;;25.60;;
57889;SDS011;43707;50.184;18.966;2022-11-15T10:34:43;50.10;;;24.70;;
57889;SDS011;43707;50.184;18.966;2022-11-15T10:37:09;50.70;;;26.10;;
57889;SDS011;43707;50.184;18.966;2022-11-15T10:39:35;53.10;;;27.60;;
57889;SDS011;43707;50.184;18.966;2022-11-15T10:44:52;54.20;;;27.00;;
57889;SDS011;43707;50.184;18.966;2022-11-15T10:47:22;50.70;;;26.60;;
57889;SDS011;43707;50.184;18.966;2022-11-15T10:49:53;51.30;;;26.80;;
57889;SDS011;43707;50.184;18.966;2022-11-15T10:52:31;57.10;;;27.80;;
57889;SDS011;43707;50.184;18.966;2022-11-15T10:57:48;57.80;;;29.20;;
57889;SDS011;43707;50.184;18.966;2022-11-15T11:03:19;59.90;;;29.40;;
57889;SDS011;43707;50.184;18.966;2022-11-15T11:10:39;67.50;;;31.80;;
57889;SDS011;43707;50.184;18.966;2022-11-15T11:13:23;63.40;;;33.70;;
57889;SDS011;43707;50.184;18.966;2022-11-15T11:16:17;77.10;;;35.00;;
57889;SDS011;43707;50.184;18.966;2022-11-15T11:21:30;72.00;;;33.20;;
57889;SDS011;43707;50.184;18.966;2022-11-15T11:35:14;58.30;;;27.70;;
57889;SDS011;43707;50.184;18.966;2022-11-15T11:40:37;61.20;;;30.00;;
57889;SDS011;43707;50.184;18.966;2022-11-15T11:49:02;58.80;;;29.20;;
57889;SDS011;43707;50.184;18.966;2022-11-15T11:51:42;64.20;;;29.30;;
57889;SDS011;43707;50.184;18.966;2022-11-15T11:57:06;61.00;;;30.20;;
57889;SDS011;43707;50.184;18.966;2022-11-15T12:02:53;61.00;;;29.80;;
57889;SDS011;43707;50.184;18.966;2022-11-15T12:05:11;55.30;;;28.20;;
57889;SDS011;43707;50.184;18.966;2022-11-15T12:07:42;60.10;;;27.40;;
57889;SDS011;43707;50.184;18.966;2022-11-15T12:10:16;66.60;;;33.40;;
57889;SDS011;43707;50.184;18.966;2022-11-15T12:13:30;65.70;;;31.60;;
57889;SDS011;43707;50.184;18.966;2022-11-15T12:15:50;68.00;;;30.60;;
57889;SDS011;43707;50.184;18.966;2022-11-15T12:18:24;57.00;;;29.90;;
57889;SDS011;43707;50.184;18.966;2022-11-15T12:20:54;63.70;;;31.80;;
57889;SDS011;43707;50.184;18.966;2022-11-15T12:23:35;58.60;;;29.00;;
57889;SDS011;43707;50.184;18.966;2022-11-15T12:26:06;68.50;;;29.50;;
57889;SDS011;43707;50.184;18.966;2022-11-15T12:33:38;57.80;;;30.10;;
57889;SDS011;43707;50.184;18.966;2022-11-15T12:36:29;60.20;;;30.90;;
57889;SDS011;43707;50.184;18.966;2022-11-15T12:38:59;64.20;;;31.50;;
57889;SDS011;43707;50.184;18.966;2022-11-15T12:44:01;59.20;;;29.20;;
57889;SDS011;43707;50.184;18.966;2022-11-15T12:48:56;55.10;;;27.50;;
57889;SDS011;43707;50.184;18.966;2022-11-15T13:08:07;62.50;;;30.00;;
57889;SDS011;43707;50.184;18.966;2022-11-15T13:10:33;59.90;;;30.40;;
57889;SDS011;43707;50.184;18.966;2022-11-15T13:13:00;57.50;;;30.20;;
57889;SDS011;43707;50.184;18.966;2022-11-15T13:18:34;59.10;;;28.90;;
